createdAt,value
2022-11-12T05:00:36.090Z,4.35
2022-11-12T05:05:06.620Z,4.30
2022-11-12T05:09:37.077Z,4.20
2022-11-12T05:14:07.500Z,4.20
2022-11-12T05:18:37.713Z,4.23
2022-11-12T05:23:08.050Z,4.17
2022-11-12T05:27:38.261Z,4.02
2022-11-12T05:32:11.743Z,3.93
2022-11-12T05:36:42.145Z,3.68
2022-11-12T05:41:17.284Z,3.70
2022-11-12T05:45:49.865Z,3.89
2022-11-12T05:50:20.252Z,3.95
2022-11-12T05:54:50.614Z,4.06
2022-11-12T05:59:21.078Z,4.20
2022-11-12T06:03:51.499Z,4.22
2022-11-12T06:08:22.049Z,4.16
2022-11-12T06:12:52.999Z,4.14
2022-11-12T06:17:23.333Z,4.20
2022-11-12T06:21:53.691Z,3.99
2022-11-12T06:26:28.796Z,4.02
2022-11-12T06:30:59.041Z,3.87
2022-11-12T06:35:29.334Z,3.95
2022-11-12T06:39:59.563Z,3.96
2022-11-12T06:44:29.952Z,4.03
2022-11-12T06:49:00.351Z,4.17
2022-11-12T06:53:30.739Z,4.11
2022-11-12T06:58:01.082Z,4.01
2022-11-12T07:02:31.323Z,3.99
2022-11-12T07:07:01.464Z,4.04
2022-11-12T07:11:31.991Z,4.05
2022-11-12T07:16:03.293Z,4.05
2022-11-12T07:20:33.497Z,4.11
2022-11-12T07:25:04.408Z,4.28
2022-11-12T07:29:47.020Z,4.02
2022-11-12T07:34:17.916Z,4.03
2022-11-12T07:38:51.885Z,3.93
2022-11-12T07:43:22.156Z,3.91
2022-11-12T07:47:52.290Z,4.02
2022-11-12T07:52:22.399Z,4.05
2022-11-12T07:56:52.746Z,3.96
2022-11-12T08:01:33.161Z,4.09
2022-11-12T08:06:04.259Z,4.20
2022-11-12T08:10:34.044Z,4.15
2022-11-12T08:15:04.195Z,4.11
2022-11-12T08:19:34.194Z,4.18
2022-11-12T08:24:04.549Z,4.13
2022-11-12T08:28:36.481Z,4.20
2022-11-12T08:33:07.001Z,4.17
2022-11-12T08:37:37.165Z,4.22
2022-11-12T08:42:07.006Z,4.18
2022-11-12T08:46:37.228Z,4.15
2022-11-12T08:51:08.195Z,4.17
2022-11-12T08:55:38.246Z,4.19
2022-11-12T09:00:10.987Z,4.34
2022-11-12T09:04:40.830Z,4.39
2022-11-12T09:09:10.798Z,4.41
2022-11-12T09:13:41.127Z,4.43
2022-11-12T09:18:14.626Z,4.43
2022-11-12T09:22:44.687Z,4.37
2022-11-12T09:27:15.015Z,4.24
2022-11-12T09:31:44.932Z,4.48
2022-11-12T09:36:17.518Z,4.52
2022-11-12T09:41:01.428Z,4.59
2022-11-12T09:45:32.726Z,4.68
2022-11-12T09:50:27.084Z,4.79
2022-11-12T09:55:17.153Z,4.80
2022-11-12T09:59:47.306Z,4.79
2022-11-12T10:04:30.864Z,4.83
2022-11-12T10:09:22.936Z,4.94
2022-11-12T10:14:13.497Z,5.00
2022-11-12T10:19:28.531Z,5.22
2022-11-12T10:24:00.932Z,5.10
2022-11-12T10:28:40.027Z,5.11
2022-11-12T10:33:16.109Z,5.17
2022-11-12T10:37:59.561Z,5.28
2022-11-12T10:42:29.902Z,5.30
2022-11-12T10:47:22.996Z,5.38
2022-11-12T10:51:58.257Z,5.34
2022-11-12T10:56:32.403Z,5.22
2022-11-12T11:01:15.290Z,5.13
2022-11-12T11:05:57.419Z,5.28
2022-11-12T11:10:33.890Z,5.27
2022-11-12T11:15:21.082Z,5.27
2022-11-12T11:19:50.956Z,5.24
2022-11-12T11:24:47.778Z,5.52
2022-11-12T11:29:39.290Z,5.70
2022-11-12T11:34:27.465Z,5.63
2022-11-12T11:39:31.155Z,5.70
2022-11-12T11:44:25.767Z,5.65
2022-11-12T11:49:33.740Z,5.80
2022-11-12T11:54:22.637Z,5.95
2022-11-12T11:59:15.313Z,5.80
2022-11-12T12:04:00.335Z,5.68
2022-11-12T12:09:08.150Z,5.79
2022-11-12T12:14:28.756Z,5.80
2022-11-12T12:19:13.338Z,5.66
2022-11-12T12:23:48.837Z,5.85
2022-11-12T12:28:42.199Z,6.00
2022-11-12T12:33:27.840Z,6.09
2022-11-12T12:38:36.244Z,6.12
2022-11-12T12:43:20.861Z,6.35
2022-11-12T12:47:52.417Z,6.32
2022-11-12T12:52:22.519Z,6.21
2022-11-12T12:56:52.870Z,6.12
2022-11-12T13:01:23.257Z,6.11
2022-11-12T13:06:06.875Z,5.97
2022-11-12T13:10:41.248Z,5.94
2022-11-12T13:15:16.334Z,5.86
2022-11-12T13:19:58.693Z,5.99
2022-11-12T13:25:06.268Z,6.06
2022-11-12T13:29:36.230Z,6.19
2022-11-12T13:34:22.797Z,6.21
2022-11-12T13:38:56.482Z,6.15
2022-11-12T13:43:39.832Z,6.21
2022-11-12T13:48:17.117Z,6.15
2022-11-12T13:52:48.510Z,6.24
2022-11-12T13:57:23.975Z,6.26
2022-11-12T14:01:55.514Z,6.17
2022-11-12T14:06:38.572Z,6.23
2022-11-12T14:11:27.533Z,6.36
2022-11-12T14:16:05.589Z,6.37
2022-11-12T14:20:39.463Z,6.27
2022-11-12T14:25:22.721Z,6.31
2022-11-12T14:30:10.897Z,6.32
2022-11-12T14:34:40.829Z,6.32
2022-11-12T14:39:11.744Z,6.33
2022-11-12T14:43:47.549Z,6.33
2022-11-12T14:48:18.169Z,6.33
2022-11-12T14:52:52.613Z,6.40
2022-11-12T14:57:32.501Z,6.34
2022-11-12T15:06:56.794Z,6.36
2022-11-12T15:11:44.762Z,6.30
2022-11-12T15:16:27.163Z,6.33
2022-11-12T15:21:10.791Z,6.35
2022-11-12T15:25:41.309Z,6.34
2022-11-12T15:30:23.636Z,6.33
2022-11-12T15:34:55.713Z,6.32
2022-11-12T15:39:28.420Z,6.35
2022-11-12T15:43:58.490Z,6.34
2022-11-12T15:48:28.744Z,6.37
2022-11-12T15:52:59.053Z,6.35
2022-11-12T15:57:32.042Z,6.29
2022-11-12T16:02:01.940Z,6.37
2022-11-12T16:06:32.225Z,6.37
2022-11-12T16:11:02.596Z,6.37
2022-11-12T16:15:33.517Z,6.44
2022-11-12T16:20:12.661Z,6.44
2022-11-12T16:24:42.741Z,6.47
2022-11-12T16:29:14.015Z,6.52
2022-11-12T16:33:44.978Z,6.56
2022-11-12T16:38:17.439Z,6.55
2022-11-12T16:42:47.547Z,6.51
2022-11-12T16:47:17.887Z,6.50
2022-11-12T16:51:48.937Z,6.54
2022-11-12T16:56:21.547Z,6.55
2022-11-12T17:00:51.708Z,6.57
2022-11-12T17:05:24.362Z,6.59
2022-11-12T17:09:54.355Z,6.59
2022-11-12T17:14:28.322Z,6.60
2022-11-12T17:19:02.069Z,6.61
2022-11-12T17:23:32.741Z,6.63
2022-11-12T17:28:02.896Z,6.72
2022-11-12T17:32:33.235Z,6.67
2022-11-12T17:37:03.679Z,6.66
2022-11-12T17:41:34.190Z,6.73
2022-11-12T17:46:05.944Z,6.77
2022-11-12T17:50:36.531Z,6.81
2022-11-12T17:55:07.072Z,6.80
2022-11-12T17:59:36.904Z,6.83
2022-11-12T18:04:10.452Z,6.83
2022-11-12T18:08:41.313Z,6.86
2022-11-12T18:13:11.639Z,6.84
2022-11-12T18:17:42.250Z,6.86
2022-11-12T18:22:14.969Z,6.86
2022-11-12T18:26:45.337Z,6.85
2022-11-12T18:31:15.720Z,6.86
2022-11-12T18:35:45.898Z,6.88
2022-11-12T18:40:16.388Z,6.91
2022-11-12T18:44:46.501Z,6.88
2022-11-12T18:49:16.690Z,6.86
2022-11-12T18:53:47.355Z,6.88
2022-11-12T18:58:17.517Z,6.89
2022-11-12T19:02:47.789Z,6.83
2022-11-12T19:07:18.413Z,6.86
2022-11-12T19:11:48.645Z,6.88
2022-11-12T19:16:21.924Z,6.92
2022-11-12T19:20:51.806Z,6.90
2022-11-12T19:25:22.492Z,6.89
2022-11-12T19:29:52.700Z,6.88
2022-11-12T19:34:23.100Z,6.86
2022-11-12T19:38:55.920Z,6.84
2022-11-12T19:43:25.887Z,6.82
2022-11-12T19:47:56.165Z,6.79
2022-11-12T19:52:26.589Z,6.70
2022-11-12T19:56:56.960Z,6.79
2022-11-12T20:01:27.352Z,6.78
2022-11-12T20:06:00.888Z,6.77
2022-11-12T20:10:30.908Z,6.77
2022-11-12T20:15:01.261Z,6.82
2022-11-12T20:19:31.670Z,6.69
2022-11-12T20:24:02.027Z,6.74
2022-11-12T20:28:33.498Z,6.59
2022-11-12T20:33:03.941Z,6.57
2022-11-12T20:37:34.072Z,6.52
2022-11-12T20:42:04.304Z,6.48
2022-11-12T20:46:34.647Z,6.53
2022-11-12T20:51:27.366Z,6.51
2022-11-12T20:56:07.205Z,6.54
2022-11-12T21:00:38.773Z,6.46
2022-11-12T21:05:08.890Z,6.50
2022-11-12T21:09:39.114Z,6.45
2022-11-12T21:14:10.681Z,6.47
2022-11-12T21:18:41.555Z,6.48
2022-11-12T21:23:12.099Z,6.49
2022-11-12T21:27:42.272Z,6.48
2022-11-12T21:32:12.747Z,6.45
2022-11-12T21:36:43.053Z,6.41
2022-11-12T21:41:20.899Z,6.43
2022-11-12T21:45:51.685Z,6.33
2022-11-12T21:50:21.893Z,6.29
2022-11-12T21:54:52.208Z,6.30
2022-11-12T21:59:22.381Z,6.27
2022-11-12T22:03:54.522Z,6.20
2022-11-12T22:08:24.877Z,6.12
2022-11-12T22:13:24.884Z,6.10
2022-11-12T22:17:45.224Z,6.07
2022-11-12T22:22:15.477Z,6.09
2022-11-12T22:26:45.765Z,6.16
